createdAt,value
2023-04-27T00:01:58.361Z,80.23
2023-04-27T00:04:53.333Z,78.89
2023-04-27T00:07:56.921Z,79.44
2023-04-27T00:10:42.028Z,78.56
2023-04-27T00:13:27.261Z,78.50
2023-04-27T00:15:54.284Z,79.70
2023-04-27T00:18:21.616Z,80.11
2023-04-27T00:20:48.576Z,79.92
2023-04-27T00:23:15.543Z,79.29
2023-04-27T00:25:42.456Z,78.17
2023-04-27T00:28:09.360Z,79.08
2023-04-27T00:30:36.385Z,78.67
2023-04-27T00:33:03.326Z,79.73
2023-04-27T00:35:30.283Z,82.18
2023-04-27T00:37:57.207Z,83.65
2023-04-27T00:40:24.182Z,83.83
2023-04-27T00:42:51.181Z,83.96
2023-04-27T00:45:18.147Z,83.83
2023-04-27T00:47:46.297Z,83.96
2023-04-27T00:50:13.252Z,83.48
2023-04-27T00:52:41.074Z,85.03
2023-04-27T00:55:08.575Z,86.24
2023-04-27T00:57:35.982Z,86.32
2023-04-27T01:00:06.858Z,86.37
2023-04-27T01:02:35.344Z,86.74
2023-04-27T01:05:20.268Z,86.48
2023-04-27T01:08:18.539Z,85.74
2023-04-27T01:11:06.264Z,87.76
2023-04-27T01:13:48.859Z,87.43
2023-04-27T01:16:29.736Z,87.05
2023-04-27T01:18:56.681Z,87.08
2023-04-27T01:21:23.658Z,86.51
2023-04-27T01:23:50.721Z,87.22
2023-04-27T01:26:17.682Z,87.84
2023-04-27T01:28:44.765Z,88.22
2023-04-27T01:31:12.328Z,87.15
2023-04-27T01:33:40.257Z,88.33
2023-04-27T01:36:08.225Z,89.85
2023-04-27T01:38:35.437Z,90.19
2023-04-27T01:41:05.029Z,89.27
2023-04-27T01:43:32.466Z,89.15
2023-04-27T01:46:07.663Z,89.73
2023-04-27T01:48:35.570Z,90.01
2023-04-27T01:51:02.836Z,90.63
2023-04-27T01:53:30.345Z,91.61
2023-04-27T01:55:59.791Z,92.10
2023-04-27T01:58:27.448Z,92.92
2023-04-27T02:00:54.501Z,93.38
2023-04-27T02:03:21.932Z,94.12
2023-04-27T02:05:49.504Z,93.34
2023-04-27T02:08:16.441Z,94.02
2023-04-27T02:10:43.454Z,93.11
2023-04-27T02:13:10.356Z,92.51
2023-04-27T02:15:37.470Z,92.16
2023-04-27T02:18:04.943Z,91.45
2023-04-27T02:20:33.262Z,91.08
2023-04-27T02:23:00.183Z,91.27
2023-04-27T02:25:27.168Z,91.43
2023-04-27T02:27:54.304Z,91.33
2023-04-27T02:30:21.845Z,90.82
2023-04-27T02:32:49.238Z,91.24
2023-04-27T02:35:16.477Z,91.44
2023-04-27T02:37:43.487Z,91.42
2023-04-27T02:40:10.673Z,93.39
2023-04-27T02:42:39.190Z,93.94
2023-04-27T02:45:09.474Z,93.71
2023-04-27T02:47:36.446Z,93.69
2023-04-27T02:50:04.330Z,94.00
2023-04-27T02:52:31.332Z,93.52
2023-04-27T02:54:58.328Z,93.32
2023-04-27T02:57:25.397Z,93.77
2023-04-27T02:59:52.364Z,94.80
2023-04-27T03:02:19.295Z,94.50
2023-04-27T03:04:46.248Z,94.57
2023-04-27T03:07:13.200Z,94.65
2023-04-27T03:09:40.180Z,94.40
2023-04-27T03:12:07.133Z,93.97
2023-04-27T03:14:34.031Z,95.02
2023-04-27T03:17:01.164Z,94.17
2023-04-27T03:19:28.246Z,93.85
2023-04-27T03:21:55.339Z,94.13
2023-04-27T03:24:25.741Z,93.82
2023-04-27T03:26:52.974Z,94.10
2023-04-27T03:29:19.886Z,94.87
2023-04-27T03:31:46.846Z,94.84
2023-04-27T03:34:13.789Z,94.63
2023-04-27T03:36:40.654Z,94.87
2023-04-27T03:39:08.296Z,94.45
2023-04-27T03:41:35.169Z,95.43
2023-04-27T03:44:02.107Z,95.36
2023-04-27T03:46:29.185Z,95.82
2023-04-27T03:48:56.261Z,95.19
2023-04-27T03:51:23.188Z,95.10
2023-04-27T03:53:50.101Z,94.40
2023-04-27T03:56:17.121Z,94.18
2023-04-27T03:58:43.996Z,94.06
2023-04-27T04:01:11.235Z,94.46
2023-04-27T04:03:38.248Z,94.20
2023-04-27T04:06:05.789Z,93.19
2023-04-27T04:08:34.465Z,93.42
2023-04-27T04:11:01.609Z,93.31
2023-04-27T04:13:28.556Z,94.08
2023-04-27T04:16:08.433Z,94.37
2023-04-27T04:18:36.435Z,93.97
2023-04-27T04:21:03.958Z,93.76
2023-04-27T04:23:30.925Z,93.78
2023-04-27T04:25:57.962Z,94.52
2023-04-27T04:28:25.683Z,93.66
2023-04-27T04:30:52.732Z,94.00
2023-04-27T04:33:19.791Z,94.10
2023-04-27T04:35:47.212Z,94.13
2023-04-27T04:38:14.348Z,93.84
2023-04-27T04:40:43.841Z,92.09
2023-04-27T04:43:13.698Z,91.50
2023-04-27T04:45:40.792Z,90.07
2023-04-27T04:48:08.859Z,89.58
2023-04-27T04:50:36.349Z,89.77
2023-04-27T04:53:03.302Z,89.21
2023-04-27T04:55:30.268Z,86.20
2023-04-27T04:57:57.148Z,86.06
2023-04-27T05:00:24.097Z,85.78
2023-04-27T05:02:51.199Z,84.59
2023-04-27T05:05:18.215Z,84.46
2023-04-27T05:07:45.184Z,83.05
2023-04-27T05:10:12.434Z,80.40
2023-04-27T05:12:39.452Z,76.63
2023-04-27T05:15:07.049Z,73.91
2023-04-27T05:17:34.038Z,70.89
2023-04-27T05:20:01.206Z,68.56
2023-04-27T05:22:28.124Z,65.98
2023-04-27T05:24:55.798Z,66.31
2023-04-27T05:27:22.721Z,67.14
2023-04-27T05:29:49.722Z,64.58
2023-04-27T05:32:16.620Z,64.11
2023-04-27T05:34:46.706Z,63.58
2023-04-27T05:37:14.901Z,66.28
2023-04-27T05:39:42.574Z,65.11
2023-04-27T05:42:09.573Z,67.78
2023-04-27T05:44:36.538Z,67.65
2023-04-27T05:47:03.500Z,68.75
2023-04-27T05:49:30.480Z,66.57
2023-04-27T05:51:59.215Z,66.92
2023-04-27T05:54:27.716Z,65.79
2023-04-27T05:56:54.674Z,60.92
2023-04-27T05:59:22.141Z,61.87
2023-04-27T06:01:49.299Z,57.31
2023-04-27T06:04:16.816Z,57.79
2023-04-27T06:06:45.058Z,57.35
2023-04-27T06:09:12.147Z,56.89
2023-04-27T06:11:39.210Z,57.51
2023-04-27T06:14:06.173Z,54.22
2023-04-27T06:16:33.621Z,54.25
2023-04-27T06:19:00.575Z,57.67
2023-04-27T06:21:28.421Z,60.70
2023-04-27T06:23:55.367Z,61.43
2023-04-27T06:26:22.317Z,57.79
2023-04-27T06:28:49.457Z,58.96
2023-04-27T06:31:16.747Z,60.06
2023-04-27T06:33:43.902Z,56.24
2023-04-27T06:36:11.076Z,52.05
2023-04-27T06:38:38.018Z,50.04
2023-04-27T06:41:05.176Z,49.84
2023-04-27T06:43:32.123Z,51.57
2023-04-27T06:45:59.017Z,50.12
2023-04-27T06:48:26.029Z,51.34
2023-04-27T06:50:52.953Z,51.72
2023-04-27T06:53:19.890Z,53.28
2023-04-27T06:55:48.572Z,53.75
2023-04-27T06:58:15.780Z,50.20
2023-04-27T07:00:42.845Z,49.50
2023-04-27T07:03:09.914Z,49.13
2023-04-27T07:05:36.906Z,48.51
2023-04-27T07:08:07.216Z,51.23
2023-04-27T07:10:35.827Z,52.79
2023-04-27T07:13:02.764Z,52.32
2023-04-27T07:15:31.827Z,53.85
2023-04-27T07:17:58.874Z,54.30
2023-04-27T07:20:26.028Z,54.82
2023-04-27T07:22:52.948Z,54.74
2023-04-27T07:25:20.135Z,55.26
2023-04-27T07:27:47.077Z,54.46
2023-04-27T07:30:14.598Z,56.17
2023-04-27T07:32:42.107Z,55.35
2023-04-27T07:35:12.321Z,55.38
2023-04-27T07:37:39.281Z,55.15
2023-04-27T07:40:14.884Z,54.21
2023-04-27T07:42:42.367Z,52.00
2023-04-27T07:45:10.133Z,50.05
2023-04-27T07:47:37.487Z,50.71
2023-04-27T07:50:04.989Z,52.26
2023-04-27T07:52:32.235Z,48.88
2023-04-27T07:54:59.147Z,48.77
2023-04-27T07:57:26.346Z,50.45
2023-04-27T07:59:53.660Z,51.27
2023-04-27T08:02:20.800Z,52.01
2023-04-27T08:04:48.947Z,52.65
2023-04-27T08:07:18.079Z,51.01
2023-04-27T08:09:45.433Z,51.24
2023-04-27T08:12:12.414Z,48.71
2023-04-27T08:14:39.385Z,47.38
2023-04-27T08:17:06.579Z,48.81
2023-04-27T08:19:33.552Z,47.08
2023-04-27T08:22:01.108Z,47.22
2023-04-27T08:24:27.984Z,47.47
2023-04-27T08:26:54.972Z,48.32
2023-04-27T08:29:27.900Z,51.47
2023-04-27T08:31:56.948Z,48.72
2023-04-27T08:34:24.308Z,49.98
2023-04-27T08:36:51.437Z,50.99
2023-04-27T08:39:18.554Z,51.92
2023-04-27T08:41:46.534Z,51.72
2023-04-27T08:44:13.626Z,52.64
2023-04-27T08:46:41.225Z,53.49
2023-04-27T08:49:08.335Z,50.54
2023-04-27T08:51:35.656Z,49.05
2023-04-27T08:54:02.666Z,48.54
2023-04-27T08:56:30.865Z,50.38
2023-04-27T08:58:59.092Z,49.12
2023-04-27T09:01:27.621Z,47.21
2023-04-27T09:03:59.991Z,46.66
2023-04-27T09:06:34.151Z,47.45
2023-04-27T09:09:02.200Z,46.02
2023-04-27T09:11:33.441Z,46.31
2023-04-27T09:14:02.009Z,44.77
2023-04-27T09:16:30.391Z,44.11
2023-04-27T09:18:58.660Z,43.54
2023-04-27T09:21:31.425Z,47.13
2023-04-27T09:23:58.677Z,48.29
2023-04-27T09:26:28.060Z,50.08
2023-04-27T09:28:59.037Z,50.68
2023-04-27T09:31:35.722Z,50.34
2023-04-27T09:34:03.296Z,48.45
2023-04-27T09:36:32.653Z,47.06
2023-04-27T09:39:04.918Z,45.53
2023-04-27T09:41:33.426Z,47.72
2023-04-27T09:44:02.512Z,47.38
2023-04-27T09:46:30.233Z,45.45
2023-04-27T09:48:57.847Z,44.57
2023-04-27T09:51:24.941Z,44.57
2023-04-27T09:53:59.007Z,44.63
2023-04-27T09:56:31.946Z,42.40
2023-04-27T09:59:37.513Z,41.06
2023-04-27T10:02:20.941Z,38.83
2023-04-27T10:05:22.602Z,39.33
2023-04-27T10:07:50.012Z,40.91
2023-04-27T10:10:21.178Z,42.50
2023-04-27T10:13:03.879Z,41.36
2023-04-27T10:15:30.914Z,43.08
2023-04-27T10:18:05.050Z,45.44
2023-04-27T10:20:33.988Z,46.91
2023-04-27T10:23:01.200Z,48.16
2023-04-27T10:25:41.805Z,47.68
2023-04-27T10:28:15.471Z,48.67
2023-04-27T10:30:46.893Z,50.16
2023-04-27T10:33:17.977Z,49.46
2023-04-27T10:35:54.253Z,49.35
2023-04-27T10:38:27.150Z,46.63
2023-04-27T10:41:02.697Z,48.40
2023-04-27T10:43:32.027Z,47.26
2023-04-27T10:46:13.921Z,47.62
2023-04-27T10:48:42.713Z,45.24
2023-04-27T10:51:09.988Z,45.83
2023-04-27T10:53:37.796Z,45.28
2023-04-27T10:56:07.184Z,44.55
2023-04-27T10:58:47.938Z,45.28
2023-04-27T11:01:27.114Z,43.37
2023-04-27T11:04:01.622Z,43.74
2023-04-27T11:06:30.529Z,44.76
2023-04-27T11:08:57.574Z,43.66
2023-04-27T11:11:25.361Z,42.86
2023-04-27T11:14:03.725Z,44.09
2023-04-27T11:16:33.690Z,43.64
2023-04-27T11:19:07.113Z,41.94
2023-04-27T11:21:34.202Z,40.56
2023-04-27T11:24:06.339Z,39.96
2023-04-27T11:26:33.594Z,40.45
2023-04-27T11:29:02.477Z,40.10
2023-04-27T11:31:39.915Z,38.27
2023-04-27T11:34:08.317Z,39.23
2023-04-27T11:36:35.191Z,40.44
2023-04-27T11:39:02.233Z,43.00
2023-04-27T11:41:38.171Z,45.09
2023-04-27T11:44:09.406Z,44.08
2023-04-27T11:46:38.247Z,44.77
2023-04-27T11:49:06.796Z,46.06
2023-04-27T11:51:33.809Z,44.13
2023-04-27T11:54:06.315Z,44.14
2023-04-27T11:56:39.130Z,46.40
2023-04-27T11:59:06.353Z,45.53
2023-04-27T12:01:38.136Z,45.41
2023-04-27T12:04:05.733Z,45.73
2023-04-27T12:06:33.887Z,45.47
2023-04-27T12:09:01.163Z,45.82
2023-04-27T12:11:28.250Z,45.70
2023-04-27T12:13:55.904Z,45.41
2023-04-27T12:16:23.237Z,45.86
2023-04-27T12:18:51.060Z,46.11
2023-04-27T12:21:18.588Z,45.90
2023-04-27T12:23:45.489Z,46.05
2023-04-27T12:26:14.950Z,44.58
2023-04-27T12:28:42.391Z,46.27
2023-04-27T12:31:13.441Z,47.01
2023-04-27T12:33:40.327Z,47.15
2023-04-27T12:36:07.603Z,44.82
2023-04-27T12:38:34.569Z,45.79
2023-04-27T12:41:02.500Z,47.30
2023-04-27T12:43:29.473Z,45.13
2023-04-27T12:45:56.597Z,46.32
2023-04-27T12:48:23.833Z,45.43
2023-04-27T12:50:51.143Z,44.48
2023-04-27T12:53:18.149Z,45.12
2023-04-27T12:55:45.271Z,45.13
2023-04-27T12:58:12.215Z,44.54
2023-04-27T13:00:39.427Z,41.55
2023-04-27T13:03:07.113Z,42.23
2023-04-27T13:05:34.137Z,43.58
2023-04-27T13:08:01.145Z,42.17
2023-04-27T13:10:29.492Z,42.64
2023-04-27T13:12:56.838Z,42.74
2023-04-27T13:15:23.815Z,42.96
2023-04-27T13:17:53.401Z,42.49
2023-04-27T13:20:20.831Z,44.75
2023-04-27T13:22:48.591Z,45.96
2023-04-27T13:25:16.996Z,47.24
2023-04-27T13:27:43.964Z,47.09
2023-04-27T13:30:11.120Z,46.04
2023-04-27T13:32:38.232Z,47.33
2023-04-27T13:35:05.698Z,47.56
2023-04-27T13:37:32.690Z,48.15
2023-04-27T13:39:59.604Z,47.62
2023-04-27T13:42:29.804Z,47.37
2023-04-27T13:44:59.491Z,45.96
2023-04-27T13:47:26.677Z,45.58
2023-04-27T13:49:53.695Z,45.06
2023-04-27T13:52:20.636Z,44.00
2023-04-27T13:54:47.543Z,43.98
2023-04-27T13:57:14.476Z,44.49
2023-04-27T13:59:41.365Z,44.91
2023-04-27T14:02:08.793Z,46.01
2023-04-27T14:04:35.834Z,44.60
2023-04-27T14:07:03.379Z,44.12
2023-04-27T14:09:30.620Z,45.52
2023-04-27T14:11:58.010Z,44.12
2023-04-27T14:14:25.219Z,43.60
2023-04-27T14:16:53.561Z,44.81
2023-04-27T14:19:20.924Z,44.00
2023-04-27T14:21:49.984Z,43.81
2023-04-27T14:24:16.938Z,42.46
2023-04-27T14:26:44.499Z,42.54
2023-04-27T14:29:12.042Z,41.56
2023-04-27T14:31:40.452Z,40.70
2023-04-27T14:34:08.582Z,41.09
2023-04-27T14:36:36.163Z,41.91
2023-04-27T14:39:04.594Z,40.33
2023-04-27T14:41:31.584Z,41.13
2023-04-27T14:43:58.639Z,40.70
2023-04-27T14:46:25.754Z,41.95
2023-04-27T14:48:52.828Z,42.26
2023-04-27T14:51:19.924Z,43.43
2023-04-27T14:53:46.878Z,43.21
2023-04-27T14:56:13.892Z,44.86
2023-04-27T14:58:41.719Z,45.06
2023-04-27T15:01:08.805Z,45.39
2023-04-27T15:03:35.989Z,45.00
2023-04-27T15:06:03.315Z,44.97
2023-04-27T15:08:32.658Z,44.77
2023-04-27T15:11:01.147Z,46.52
2023-04-27T15:13:28.765Z,48.99
2023-04-27T15:15:56.960Z,45.97
2023-04-27T15:18:24.983Z,46.60
2023-04-27T15:20:56.737Z,47.23
2023-04-27T15:23:25.028Z,46.95
2023-04-27T15:25:56.202Z,46.60
2023-04-27T15:28:23.941Z,47.72
2023-04-27T15:30:51.483Z,48.92
2023-04-27T15:33:18.722Z,47.58
2023-04-27T15:35:45.800Z,47.23
2023-04-27T15:38:15.397Z,48.16
2023-04-27T15:40:42.452Z,48.57
2023-04-27T15:43:09.485Z,48.47
2023-04-27T15:45:36.533Z,48.96
2023-04-27T15:48:03.801Z,47.47
2023-04-27T15:50:31.092Z,46.57
2023-04-27T15:52:58.124Z,47.00
2023-04-27T15:55:25.094Z,47.32
2023-04-27T15:57:52.006Z,46.84
2023-04-27T16:00:22.525Z,46.65
2023-04-27T16:02:49.796Z,47.66
2023-04-27T16:05:17.279Z,49.22
2023-04-27T16:07:45.087Z,48.69
2023-04-27T16:10:13.018Z,47.30
2023-04-27T16:12:40.295Z,48.53
2023-04-27T16:15:10.228Z,49.00
2023-04-27T16:17:37.920Z,47.22
2023-04-27T16:20:06.971Z,47.75
2023-04-27T16:22:37.261Z,48.66
2023-04-27T16:25:10.648Z,48.24
2023-04-27T16:27:38.850Z,48.86
2023-04-27T16:30:07.673Z,48.64
2023-04-27T16:32:35.708Z,48.62
2023-04-27T16:35:03.351Z,48.66
2023-04-27T16:37:30.291Z,48.10
2023-04-27T16:40:01.732Z,48.06
2023-04-27T16:42:28.884Z,48.26
2023-04-27T16:44:55.950Z,47.79
2023-04-27T16:47:23.127Z,48.44
2023-04-27T16:49:50.085Z,48.38
2023-04-27T16:52:18.179Z,49.71
2023-04-27T16:54:45.132Z,50.69
2023-04-27T16:57:13.415Z,48.92
2023-04-27T16:59:40.884Z,49.02
2023-04-27T17:02:22.959Z,50.27
2023-04-27T17:04:51.456Z,48.71
2023-04-27T17:07:18.878Z,49.32
2023-04-27T17:09:45.973Z,50.02
2023-04-27T17:12:14.116Z,51.25
2023-04-27T17:14:41.204Z,49.66
2023-04-27T17:17:08.181Z,51.05
2023-04-27T17:19:35.153Z,50.52
2023-04-27T17:22:02.081Z,51.23
2023-04-27T17:24:28.959Z,50.53
2023-04-27T17:26:55.953Z,49.59
2023-04-27T17:29:22.911Z,51.72
2023-04-27T17:31:50.720Z,50.68
2023-04-27T17:34:17.843Z,51.01
2023-04-27T17:36:44.781Z,50.67
2023-04-27T17:39:13.764Z,50.76
2023-04-27T17:41:41.347Z,50.38
2023-04-27T17:44:08.402Z,51.54
2023-04-27T17:46:38.064Z,51.12
2023-04-27T17:49:05.095Z,50.85
2023-04-27T17:51:33.054Z,52.28
2023-04-27T17:53:59.944Z,52.70
2023-04-27T17:56:27.001Z,53.25
2023-04-27T17:58:53.885Z,54.75
2023-04-27T18:01:20.973Z,55.54
2023-04-27T18:03:49.170Z,54.17
2023-04-27T18:06:16.260Z,54.06
2023-04-27T18:08:43.155Z,53.93
2023-04-27T18:11:10.094Z,56.01
2023-04-27T18:14:43.088Z,57.74
2023-04-27T18:17:10.075Z,58.21
2023-04-27T18:19:36.990Z,60.02
2023-04-27T18:22:03.947Z,61.62
2023-04-27T18:24:31.465Z,61.14
2023-04-27T18:26:58.357Z,61.27
2023-04-27T18:29:25.289Z,62.81
2023-04-27T18:31:53.596Z,63.50
2023-04-27T18:34:20.623Z,63.98
2023-04-27T18:36:51.858Z,64.52
2023-04-27T18:39:19.398Z,68.32
2023-04-27T18:41:46.554Z,67.99
2023-04-27T18:44:13.728Z,67.79
2023-04-27T18:46:40.842Z,70.97
2023-04-27T18:49:07.751Z,69.40
2023-04-27T18:51:34.914Z,67.55
2023-04-27T18:54:01.821Z,68.72
2023-04-27T18:56:28.854Z,70.40
2023-04-27T18:58:56.193Z,71.68
2023-04-27T19:01:27.976Z,71.12
2023-04-27T19:03:55.360Z,71.22
2023-04-27T19:06:22.555Z,72.14
2023-04-27T19:08:49.629Z,70.72
2023-04-27T19:11:16.671Z,70.32
2023-04-27T19:13:45.376Z,69.65
2023-04-27T19:16:12.499Z,69.59
2023-04-27T19:18:40.878Z,70.15
2023-04-27T19:21:10.127Z,71.51
2023-04-27T19:23:37.206Z,72.59
2023-04-27T19:26:12.429Z,72.71
2023-04-27T19:28:40.726Z,74.11
2023-04-27T19:31:07.878Z,75.59
2023-04-27T19:33:34.987Z,77.62
2023-04-27T19:36:01.974Z,80.44
2023-04-27T19:38:29.682Z,78.78
2023-04-27T19:40:56.678Z,78.62
2023-04-27T19:43:23.655Z,77.73
2023-04-27T19:45:51.379Z,76.61
2023-04-27T19:48:18.442Z,76.74
2023-04-27T19:50:45.364Z,79.99
2023-04-27T19:53:12.502Z,78.82
2023-04-27T19:55:40.692Z,78.53
2023-04-27T19:58:07.690Z,78.76
2023-04-27T20:00:34.683Z,81.32
2023-04-27T20:03:01.822Z,79.89
2023-04-27T20:05:29.162Z,78.97
2023-04-27T20:07:56.254Z,79.60
2023-04-27T20:10:23.206Z,79.63
2023-04-27T20:12:56.804Z,81.42
2023-04-27T20:15:24.998Z,81.04
2023-04-27T20:17:55.304Z,81.26
2023-04-27T20:20:22.351Z,85.23
2023-04-27T20:22:49.739Z,83.65
2023-04-27T20:25:16.660Z,84.98
2023-04-27T20:27:43.712Z,85.33
2023-04-27T20:30:11.102Z,83.03
2023-04-27T20:32:39.775Z,82.10
2023-04-27T20:35:11.572Z,81.48
2023-04-27T20:37:39.566Z,82.99
2023-04-27T20:40:08.021Z,81.88
2023-04-27T20:42:34.994Z,80.96
2023-04-27T20:45:02.223Z,82.84
2023-04-27T20:47:29.348Z,83.21
2023-04-27T20:49:56.463Z,83.05
2023-04-27T20:52:23.588Z,82.39
2023-04-27T20:54:51.227Z,80.43
2023-04-27T20:57:18.129Z,81.26
2023-04-27T20:59:45.040Z,81.29
2023-04-27T21:02:12.107Z,80.62
2023-04-27T21:04:39.695Z,82.41
2023-04-27T21:07:07.034Z,81.79
2023-04-27T21:09:34.009Z,85.31
2023-04-27T21:12:01.023Z,85.32
2023-04-27T21:14:27.974Z,86.34
2023-04-27T21:16:55.100Z,86.99
2023-04-27T21:19:22.296Z,86.36
2023-04-27T21:21:49.214Z,87.55
2023-04-27T21:24:16.169Z,87.35
2023-04-27T21:26:43.087Z,87.18
2023-04-27T21:29:10.079Z,88.78
2023-04-27T21:31:37.122Z,86.07
2023-04-27T21:34:04.386Z,84.57
2023-04-27T21:36:33.152Z,86.77
2023-04-27T21:39:00.132Z,88.57
2023-04-27T21:41:27.218Z,86.75
2023-04-27T21:43:54.188Z,86.16
2023-04-27T21:46:23.732Z,85.23
2023-04-27T21:48:50.871Z,84.26
2023-04-27T21:51:17.880Z,83.60
2023-04-27T21:53:44.756Z,83.55
2023-04-27T21:56:11.806Z,85.16
2023-04-27T21:58:38.743Z,85.97
2023-04-27T22:01:05.781Z,87.09
2023-04-27T22:03:32.963Z,88.39
2023-04-27T22:06:00.002Z,89.41
2023-04-27T22:08:26.946Z,90.61
2023-04-27T22:10:53.881Z,89.87
2023-04-27T22:13:20.909Z,90.99
2023-04-27T22:15:48.416Z,90.72
2023-04-27T22:18:16.083Z,88.71
2023-04-27T22:20:44.512Z,87.67
2023-04-27T22:23:11.803Z,87.48
2023-04-27T22:25:38.791Z,88.03
2023-04-27T22:28:05.761Z,87.16
2023-04-27T22:30:32.740Z,86.79
2023-04-27T22:32:59.788Z,88.46
2023-04-27T22:35:27.865Z,86.15
2023-04-27T22:37:59.326Z,87.05
2023-04-27T22:40:26.503Z,87.30
2023-04-27T22:42:55.158Z,88.59
2023-04-27T22:45:23.266Z,89.27
2023-04-27T22:47:50.350Z,89.69
2023-04-27T22:50:17.709Z,91.05
2023-04-27T22:52:44.751Z,89.93
2023-04-27T22:55:12.572Z,88.93
2023-04-27T22:57:41.341Z,88.36
2023-04-27T23:00:12.127Z,87.53
2023-04-27T23:02:40.712Z,88.12
2023-04-27T23:05:08.429Z,87.78
2023-04-27T23:07:36.336Z,87.47
2023-04-27T23:10:03.714Z,85.19
2023-04-27T23:12:31.583Z,85.76
2023-04-27T23:14:59.538Z,85.68
2023-04-27T23:17:31.114Z,87.33
2023-04-27T23:19:59.104Z,87.44
2023-04-27T23:22:26.935Z,88.95
2023-04-27T23:24:54.609Z,89.86
2023-04-27T23:27:22.801Z,88.70
2023-04-27T23:29:49.721Z,89.66
2023-04-27T23:32:17.340Z,90.16
2023-04-27T23:34:44.229Z,90.53
2023-04-27T23:37:11.220Z,88.31
2023-04-27T23:39:38.575Z,89.27
2023-04-27T23:42:05.593Z,89.74
2023-04-27T23:44:32.533Z,89.95
2023-04-27T23:46:59.437Z,89.52
2023-04-27T23:49:26.409Z,88.99
2023-04-27T23:51:53.343Z,87.88
2023-04-27T23:54:20.293Z,87.78
2023-04-27T23:56:47.464Z,88.13
2023-04-27T23:59:15.231Z,89.39
